Time;durP1;ratioP1;P1;durP2;ratioP2;P2;SDS_P1;SDS_P2;PMS_P1;PMS_P2;Temp;Humidity;BMP_temperature;BMP_pressure;BME280_temperature;BME280_humidity;BME280_pressure;Samples;Min_cycle;Max_cycle;Signal;HPM_P1;HPM_P2
2023/09/29 00:00:52;;;;;;;2.15;0.70;;;;;;;;;;5055663;28;20045;-62
2023/09/29 00:03:19;;;;;;;0.60;0.38;;;;;;;;;;5057120;28;20045;-61
2023/09/29 00:05:45;;;;;;;2.25;0.88;;;;;;;;;;5055876;28;20644;-61
2023/09/29 00:08:17;;;;;;;2.22;1.20;;;;;;;;;;5053025;28;20489;-61
2023/09/29 00:10:45;;;;;;;2.45;1.02;;;;;;;;;;5058164;28;20039;-61
2023/09/29 00:13:11;;;;;;;1.65;1.05;;;;;;;;;;5056539;28;20506;-61
2023/09/29 00:15:38;;;;;;;1.50;0.80;;;;;;;;;;5052107;28;20098;-61
2023/09/29 00:18:05;;;;;;;2.13;1.05;;;;;;;;;;5055079;28;20040;-61
2023/09/29 00:20:31;;;;;;;1.10;0.55;;;;;;;;;;5059789;28;20048;-61
2023/09/29 00:22:59;;;;;;;2.33;0.85;;;;;;;;;;5056124;28;20397;-61
2023/09/29 00:25:25;;;;;;;2.10;1.00;;;;;;;;;;5057229;28;20571;-61
2023/09/29 00:27:51;;;;;;;3.03;1.10;;;;;;;;;;5057968;28;20736;-61
2023/09/29 00:30:17;;;;;;;2.38;0.88;;;;;;;;;;5050720;28;20127;-61
2023/09/29 00:32:50;;;;;;;2.65;0.90;;;;;;;;;;5052441;28;20682;-61
2023/09/29 00:35:24;;;;;;;1.60;1.05;;;;;;;;;;5052411;28;20055;-61
2023/09/29 00:37:59;;;;;;;2.15;1.13;;;;;;;;;;5053282;28;20060;-61
2023/09/29 00:40:25;;;;;;;1.30;0.80;;;;;;;;;;5052296;28;20605;-61
2023/09/29 00:42:55;;;;;;;5.20;1.90;;;;;;;;;;5052615;28;20044;-61
2023/09/29 00:45:26;;;;;;;5.70;2.17;;;;;;;;;;5054546;28;20663;-61
2023/09/29 00:47:52;;;;;;;4.72;2.03;;;;;;;;;;5050887;28;20392;-61
2023/09/29 00:50:19;;;;;;;2.35;1.27;;;;;;;;;;5053667;28;20071;-61
2023/09/29 00:52:46;;;;;;;3.60;1.38;;;;;;;;;;5055755;28;20045;-61
2023/09/29 00:55:15;;;;;;;2.10;1.17;;;;;;;;;;5056867;28;20060;-61
2023/09/29 00:57:41;;;;;;;1.15;0.73;;;;;;;;;;5054431;28;20423;-61
2023/09/29 01:00:30;;;;;;;1.23;0.70;;;;;;;;;;5053029;28;20048;-61
2023/09/29 01:02:56;;;;;;;2.20;0.95;;;;;;;;;;5052643;28;20580;-61
2023/09/29 01:05:22;;;;;;;1.05;0.57;;;;;;;;;;5056586;28;20041;-61
2023/09/29 01:07:48;;;;;;;0.43;0.40;;;;;;;;;;5052119;28;20037;-61
2023/09/29 01:10:14;;;;;;;0.77;0.55;;;;;;;;;;5056693;28;20040;-61
2023/09/29 01:12:41;;;;;;;1.42;0.77;;;;;;;;;;5058148;28;20464;-61
2023/09/29 01:15:12;;;;;;;3.08;0.90;;;;;;;;;;5053868;28;20171;-61
2023/09/29 01:17:38;;;;;;;0.90;0.68;;;;;;;;;;5046495;28;20053;-61
2023/09/29 01:20:11;;;;;;;0.40;0.30;;;;;;;;;;5057381;28;20126;-61
2023/09/29 01:22:44;;;;;;;0.60;0.60;;;;;;;;;;5055545;28;20409;-61
2023/09/29 01:25:10;;;;;;;0.98;0.55;;;;;;;;;;5056160;28;20124;-61
2023/09/29 01:27:36;;;;;;;1.02;0.60;;;;;;;;;;5054744;28;20492;-61
2023/09/29 01:30:03;;;;;;;0.75;0.50;;;;;;;;;;5053238;28;20044;-61
2023/09/29 01:32:30;;;;;;;1.10;0.60;;;;;;;;;;5053531;28;20062;-61
2023/09/29 01:34:56;;;;;;;0.77;0.65;;;;;;;;;;5047794;28;20043;-61
2023/09/29 01:37:22;;;;;;;1.50;0.68;;;;;;;;;;5049645;28;20032;-61
2023/09/29 01:39:48;;;;;;;0.60;0.40;;;;;;;;;;5047341;28;20516;-61
2023/09/29 01:42:15;;;;;;;1.17;0.70;;;;;;;;;;5053260;28;20057;-61
2023/09/29 01:44:41;;;;;;;2.38;0.88;;;;;;;;;;5051824;28;20048;-61
2023/09/29 01:47:08;;;;;;;3.63;1.30;;;;;;;;;;5049406;28;20045;-61
2023/09/29 01:49:34;;;;;;;2.63;1.13;;;;;;;;;;5049814;28;20048;-61
2023/09/29 01:52:00;;;;;;;1.52;0.93;;;;;;;;;;5055539;28;20718;-61
2023/09/29 01:54:28;;;;;;;2.00;0.73;;;;;;;;;;5050258;28;20032;-61
2023/09/29 01:56:54;;;;;;;1.35;0.60;;;;;;;;;;5051993;28;20433;-61
2023/09/29 01:59:21;;;;;;;0.95;0.80;;;;;;;;;;5052038;28;20118;-61
2023/09/29 02:01:48;;;;;;;1.20;0.80;;;;;;;;;;5050816;28;20159;-61
2023/09/29 02:04:14;;;;;;;1.48;1.00;;;;;;;;;;5051240;28;20045;-62
2023/09/29 02:06:41;;;;;;;0.93;0.60;;;;;;;;;;5050447;28;20736;-61
2023/09/29 02:09:09;;;;;;;1.08;0.60;;;;;;;;;;5054342;28;20156;-61
2023/09/29 02:11:39;;;;;;;1.33;0.80;;;;;;;;;;5050616;28;20638;-61
2023/09/29 02:14:05;;;;;;;2.05;0.70;;;;;;;;;;5056567;28;20053;-61
2023/09/29 02:16:31;;;;;;;1.23;0.75;;;;;;;;;;5052826;28;20036;-61
2023/09/29 02:18:57;;;;;;;1.77;0.90;;;;;;;;;;5049707;28;20079;-61
2023/09/29 02:21:23;;;;;;;3.05;1.27;;;;;;;;;;5054274;28;20689;-61
2023/09/29 02:23:49;;;;;;;4.80;0.93;;;;;;;;;;5051392;28;20057;-61
2023/09/29 02:26:15;;;;;;;1.85;0.90;;;;;;;;;;5053458;28;20041;-61
2023/09/29 02:28:41;;;;;;;1.25;0.75;;;;;;;;;;5055569;28;20419;-61
2023/09/29 02:31:14;;;;;;;2.05;1.02;;;;;;;;;;5057311;28;20045;-61
2023/09/29 02:33:40;;;;;;;1.55;0.82;;;;;;;;;;5052530;28;20055;-61
2023/09/29 02:36:07;;;;;;;0.93;0.75;;;;;;;;;;5054485;28;20048;-61
2023/09/29 02:38:33;;;;;;;1.98;0.75;;;;;;;;;;5045184;28;20133;-61
2023/09/29 02:40:59;;;;;;;1.58;1.00;;;;;;;;;;5052091;28;20140;-62
2023/09/29 02:43:30;;;;;;;1.52;0.90;;;;;;;;;;5050094;28;20143;-62
2023/09/29 02:45:56;;;;;;;1.52;0.98;;;;;;;;;;5049171;28;20056;-63
2023/09/29 02:48:22;;;;;;;0.80;0.70;;;;;;;;;;5055524;28;20048;-62
2023/09/29 02:50:48;;;;;;;2.05;0.93;;;;;;;;;;5055844;28;20167;-62
2023/09/29 02:53:14;;;;;;;1.80;0.68;;;;;;;;;;5054996;28;20052;-62
2023/09/29 02:55:40;;;;;;;1.13;0.60;;;;;;;;;;5053540;28;20543;-62
2023/09/29 02:58:07;;;;;;;3.20;1.38;;;;;;;;;;5059141;28;20084;-62
2023/09/29 03:00:33;;;;;;;1.10;0.75;;;;;;;;;;5056990;28;20028;-62
2023/09/29 03:03:00;;;;;;;1.75;0.95;;;;;;;;;;5056155;28;20531;-62
2023/09/29 03:05:26;;;;;;;1.52;0.60;;;;;;;;;;5058716;28;20062;-62
2023/09/29 03:07:54;;;;;;;3.03;0.88;;;;;;;;;;5059204;28;20048;-62
2023/09/29 03:10:23;;;;;;;3.20;1.05;;;;;;;;;;5054826;28;20037;-62
2023/09/29 03:12:49;;;;;;;1.85;1.08;;;;;;;;;;5053833;28;20124;-62
2023/09/29 03:15:15;;;;;;;1.95;1.25;;;;;;;;;;5056298;28;20040;-62
2023/09/29 03:17:42;;;;;;;1.55;0.93;;;;;;;;;;5055680;28;20045;-62
2023/09/29 03:20:12;;;;;;;1.58;1.15;;;;;;;;;;5061018;28;20050;-62
2023/09/29 03:22:43;;;;;;;2.45;1.33;;;;;;;;;;5055494;28;20072;-62
2023/09/29 03:25:09;;;;;;;5.00;1.95;;;;;;;;;;5056142;28;20052;-62
2023/09/29 03:27:36;;;;;;;2.72;1.30;;;;;;;;;;5059266;28;20037;-62
2023/09/29 03:30:04;;;;;;;2.00;1.00;;;;;;;;;;5056790;28;20055;-62
2023/09/29 03:32:30;;;;;;;1.20;1.10;;;;;;;;;;5052396;28;20240;-62
2023/09/29 03:34:56;;;;;;;2.08;1.20;;;;;;;;;;5059256;28;20045;-62
2023/09/29 03:37:23;;;;;;;1.25;0.88;;;;;;;;;;5055993;28;20037;-62
2023/09/29 03:39:49;;;;;;;1.58;0.82;;;;;;;;;;5051925;28;20041;-62
2023/09/29 03:42:16;;;;;;;1.52;1.08;;;;;;;;;;5053490;28;20040;-62
2023/09/29 03:44:44;;;;;;;1.67;1.00;;;;;;;;;;5051077;28;20512;-62
2023/09/29 03:47:12;;;;;;;4.07;1.60;;;;;;;;;;5054689;28;20060;-62
2023/09/29 03:49:38;;;;;;;2.75;1.20;;;;;;;;;;5051941;28;20115;-62
2023/09/29 03:52:06;;;;;;;1.55;1.15;;;;;;;;;;5057376;28;20636;-62
2023/09/29 03:54:32;;;;;;;1.65;1.05;;;;;;;;;;5052410;28;20049;-62
2023/09/29 03:56:58;;;;;;;2.03;1.08;;;;;;;;;;5050651;28;20706;-62
2023/09/29 03:59:24;;;;;;;4.70;1.30;;;;;;;;;;5051607;28;20119;-62
2023/09/29 04:01:51;;;;;;;2.85;1.17;;;;;;;;;;5056749;28;20048;-62
2023/09/29 04:04:17;;;;;;;2.00;0.75;;;;;;;;;;5054300;28;20698;-62
2023/09/29 04:06:43;;;;;;;1.25;0.88;;;;;;;;;;5058064;28;20033;-62
2023/09/29 04:09:09;;;;;;;3.15;1.20;;;;;;;;;;5053851;28;20041;-62
2023/09/29 04:11:35;;;;;;;3.28;1.38;;;;;;;;;;5057148;28;20041;-62
2023/09/29 04:14:01;;;;;;;2.08;1.20;;;;;;;;;;5054003;28;20076;-62
2023/09/29 04:16:27;;;;;;;6.82;1.90;;;;;;;;;;5050326;28;20075;-62
2023/09/29 04:18:53;;;;;;;1.70;1.42;;;;;;;;;;5056999;28;20938;-62
2023/09/29 04:21:19;;;;;;;1.88;1.10;;;;;;;;;;5054605;28;20075;-62
2023/09/29 04:23:45;;;;;;;2.03;1.23;;;;;;;;;;5057971;28;20036;-62
2023/09/29 04:26:15;;;;;;;2.38;1.30;;;;;;;;;;5055573;28;20536;-62
2023/09/29 04:28:41;;;;;;;2.15;1.20;;;;;;;;;;5051063;28;20124;-62
2023/09/29 04:31:07;;;;;;;4.95;1.70;;;;;;;;;;5055278;28;20029;-62
2023/09/29 04:33:33;;;;;;;2.72;1.40;;;;;;;;;;5059429;28;20507;-62
2023/09/29 04:35:59;;;;;;;4.45;2.22;;;;;;;;;;5051734;28;20504;-62
2023/09/29 04:38:25;;;;;;;3.15;1.70;;;;;;;;;;5057737;28;20048;-62
2023/09/29 04:40:51;;;;;;;4.00;1.95;;;;;;;;;;5053610;28;20059;-62
2023/09/29 04:43:18;;;;;;;4.88;2.03;;;;;;;;;;5050503;28;20036;-62
2023/09/29 04:45:44;;;;;;;6.32;2.63;;;;;;;;;;5050105;28;20055;-62
2023/09/29 04:48:10;;;;;;;5.47;2.15;;;;;;;;;;5051996;28;20044;-62
2023/09/29 04:50:36;;;;;;;4.90;2.00;;;;;;;;;;5053205;28;20040;-62
2023/09/29 04:53:02;;;;;;;5.50;2.13;;;;;;;;;;5055572;28;20036;-62
2023/09/29 04:55:28;;;;;;;3.78;1.38;;;;;;;;;;5054753;28;20066;-62
2023/09/29 04:57:55;;;;;;;4.05;1.83;;;;;;;;;;5056016;28;21030;-62
2023/09/29 05:00:23;;;;;;;3.58;1.70;;;;;;;;;;5054611;28;20052;-60
2023/09/29 05:02:49;;;;;;;4.15;1.85;;;;;;;;;;5055320;28;20551;-62
2023/09/29 05:05:15;;;;;;;4.47;1.88;;;;;;;;;;5058296;28;20037;-60
2023/09/29 05:07:47;;;;;;;4.07;1.60;;;;;;;;;;5054746;28;20385;-64
2023/09/29 05:10:13;;;;;;;4.93;2.00;;;;;;;;;;5054568;28;20124;-65
2023/09/29 05:12:40;;;;;;;4.75;2.33;;;;;;;;;;5056851;28;20043;-64
2023/09/29 05:15:06;;;;;;;3.25;1.52;;;;;;;;;;5050473;28;20051;-64
2023/09/29 05:17:33;;;;;;;3.53;1.65;;;;;;;;;;5050281;28;20110;-63
2023/09/29 05:19:58;;;;;;;4.47;2.17;;;;;;;;;;5050265;28;20519;-63
2023/09/29 05:22:24;;;;;;;3.03;2.08;;;;;;;;;;5047980;28;20036;-64
2023/09/29 05:24:53;;;;;;;2.53;1.60;;;;;;;;;;5049685;28;20052;-64
2023/09/29 05:27:19;;;;;;;4.93;2.00;;;;;;;;;;5048606;28;20087;-64
2023/09/29 05:29:45;;;;;;;3.40;1.58;;;;;;;;;;5053801;28;20048;-63
2023/09/29 05:32:11;;;;;;;3.67;1.67;;;;;;;;;;5052093;28;20991;-63
2023/09/29 05:34:37;;;;;;;4.68;1.75;;;;;;;;;;5052750;28;20040;-63
2023/09/29 05:37:04;;;;;;;4.18;2.40;;;;;;;;;;5054244;28;20037;-63
2023/09/29 05:39:31;;;;;;;5.25;2.78;;;;;;;;;;5051450;28;20036;-63
2023/09/29 05:41:58;;;;;;;3.53;2.05;;;;;;;;;;5057030;28;20041;-63
2023/09/29 05:44:24;;;;;;;3.58;1.88;;;;;;;;;;5055662;28;20033;-64
2023/09/29 05:46:50;;;;;;;3.03;1.70;;;;;;;;;;5050089;28;20505;-63
2023/09/29 05:49:16;;;;;;;3.05;2.08;;;;;;;;;;5055506;28;20389;-63
2023/09/29 05:51:42;;;;;;;2.08;1.40;;;;;;;;;;5050740;28;20361;-63
2023/09/29 05:54:08;;;;;;;1.83;1.17;;;;;;;;;;5057543;28;20028;-63
2023/09/29 05:56:34;;;;;;;2.78;1.70;;;;;;;;;;5052045;28;20048;-63
2023/09/29 05:59:00;;;;;;;7.32;2.20;;;;;;;;;;5043914;28;20044;-63
2023/09/29 06:01:26;;;;;;;1.40;1.17;;;;;;;;;;5052790;28;20090;-63
2023/09/29 06:03:53;;;;;;;2.45;1.50;;;;;;;;;;5052668;28;20405;-63
2023/09/29 06:06:19;;;;;;;3.65;1.67;;;;;;;;;;5050912;28;20072;-63
2023/09/29 06:08:45;;;;;;;1.27;1.17;;;;;;;;;;5051767;28;20029;-63
2023/09/29 06:11:12;;;;;;;1.30;0.82;;;;;;;;;;5053331;28;20047;-63
2023/09/29 06:13:39;;;;;;;1.85;0.95;;;;;;;;;;5053134;28;20040;-64
2023/09/29 06:16:05;;;;;;;1.42;0.80;;;;;;;;;;5053850;28;20036;-64
2023/09/29 06:18:31;;;;;;;0.82;0.73;;;;;;;;;;5045549;28;20036;-63
2023/09/29 06:20:58;;;;;;;1.77;1.15;;;;;;;;;;5052459;28;20124;-63
2023/09/29 06:23:24;;;;;;;2.47;1.00;;;;;;;;;;5057332;28;20036;-63
2023/09/29 06:25:56;;;;;;;2.13;1.10;;;;;;;;;;5057216;28;20037;-63
2023/09/29 06:28:22;;;;;;;1.40;1.10;;;;;;;;;;5057207;28;20499;-63
2023/09/29 06:30:48;;;;;;;0.73;0.70;;;;;;;;;;5051425;28;20040;-63
2023/09/29 06:33:14;;;;;;;1.50;0.93;;;;;;;;;;5051794;28;20032;-63
2023/09/29 06:35:41;;;;;;;0.85;0.65;;;;;;;;;;5056244;28;20032;-63
2023/09/29 06:38:07;;;;;;;0.75;0.60;;;;;;;;;;5056683;28;20047;-63
2023/09/29 06:40:33;;;;;;;0.77;0.68;;;;;;;;;;5053574;28;20065;-63
2023/09/29 06:42:59;;;;;;;3.20;0.80;;;;;;;;;;5045905;28;20061;-63
2023/09/29 06:45:29;;;;;;;1.40;0.50;;;;;;;;;;5045856;28;20036;-63
2023/09/29 06:47:55;;;;;;;0.80;0.60;;;;;;;;;;5045252;28;20056;-63
2023/09/29 06:50:22;;;;;;;1.02;0.60;;;;;;;;;;5046499;28;20037;-63
2023/09/29 06:52:48;;;;;;;0.50;0.50;;;;;;;;;;5049782;28;20124;-63
2023/09/29 06:55:14;;;;;;;0.68;0.50;;;;;;;;;;5045570;28;20080;-63
2023/09/29 06:57:41;;;;;;;1.88;1.10;;;;;;;;;;5046584;28;20033;-63
2023/09/29 07:00:09;;;;;;;1.95;1.20;;;;;;;;;;5046490;28;20037;-63
2023/09/29 07:02:35;;;;;;;1.98;1.10;;;;;;;;;;5037337;28;20040;-63
2023/09/29 07:05:02;;;;;;;0.70;0.60;;;;;;;;;;5045967;28;20110;-63
2023/09/29 07:07:28;;;;;;;1.23;1.13;;;;;;;;;;5045737;28;20119;-63
2023/09/29 07:09:54;;;;;;;1.60;0.90;;;;;;;;;;5045092;28;20099;-63
2023/09/29 07:12:21;;;;;;;2.83;1.58;;;;;;;;;;5046357;28;20397;-63
2023/09/29 07:14:47;;;;;;;2.00;1.40;;;;;;;;;;5046176;28;20045;-63
2023/09/29 07:17:13;;;;;;;1.27;1.05;;;;;;;;;;5050689;28;20040;-63
2023/09/29 07:19:39;;;;;;;2.38;1.63;;;;;;;;;;5050131;28;20049;-64
2023/09/29 07:22:06;;;;;;;2.90;1.80;;;;;;;;;;5046206;28;20045;-63
2023/09/29 07:24:32;;;;;;;2.83;1.45;;;;;;;;;;5044941;28;20049;-63
2023/09/29 07:26:58;;;;;;;2.45;1.60;;;;;;;;;;5045786;28;20094;-64
2023/09/29 07:29:24;;;;;;;2.08;1.23;;;;;;;;;;5049234;28;20396;-64
2023/09/29 07:31:50;;;;;;;2.08;1.27;;;;;;;;;;5044233;28;20037;-64
2023/09/29 07:34:16;;;;;;;1.38;1.00;;;;;;;;;;5048583;28;20037;-64
2023/09/29 07:36:46;;;;;;;2.00;1.33;;;;;;;;;;5049077;28;20036;-64
2023/09/29 07:39:13;;;;;;;1.90;1.30;;;;;;;;;;5040527;28;20033;-64
2023/09/29 07:41:40;;;;;;;3.10;1.15;;;;;;;;;;5049277;28;20069;-64
2023/09/29 07:44:09;;;;;;;1.92;1.33;;;;;;;;;;5048692;28;20098;-64
2023/09/29 07:46:36;;;;;;;1.52;1.40;;;;;;;;;;5043341;28;20469;-65
2023/09/29 07:49:05;;;;;;;3.10;1.77;;;;;;;;;;5057160;28;20045;-65
2023/09/29 07:51:32;;;;;;;1.67;1.58;;;;;;;;;;5049880;28;20044;-65
2023/09/29 07:53:58;;;;;;;2.22;1.60;;;;;;;;;;5054470;28;20044;-65
2023/09/29 07:56:24;;;;;;;2.92;1.55;;;;;;;;;;5057444;28;20084;-65
2023/09/29 07:58:52;;;;;;;2.05;1.50;;;;;;;;;;5046316;28;20037;-65
2023/09/29 08:01:18;;;;;;;1.75;1.40;;;;;;;;;;5048809;28;20037;-65
2023/09/29 08:03:44;;;;;;;2.03;1.35;;;;;;;;;;5048849;28;20033;-65
2023/09/29 08:06:10;;;;;;;1.80;1.50;;;;;;;;;;5054536;28;20040;-65
2023/09/29 08:08:36;;;;;;;2.75;1.60;;;;;;;;;;5047673;28;20072;-65
2023/09/29 08:11:02;;;;;;;2.60;1.48;;;;;;;;;;5053026;28;20041;-66
2023/09/29 08:13:28;;;;;;;2.55;1.58;;;;;;;;;;5045560;28;20072;-65
2023/09/29 08:15:54;;;;;;;2.97;2.15;;;;;;;;;;5047253;28;20041;-65
2023/09/29 08:18:20;;;;;;;3.35;2.03;;;;;;;;;;5049300;28;20048;-65
2023/09/29 08:20:51;;;;;;;2.80;1.92;;;;;;;;;;5045127;28;20068;-65
2023/09/29 08:23:17;;;;;;;3.50;1.83;;;;;;;;;;5052654;28;20481;-65
2023/09/29 08:25:43;;;;;;;2.70;1.98;;;;;;;;;;5056259;28;20059;-65
2023/09/29 08:28:09;;;;;;;1.75;1.27;;;;;;;;;;5051237;28;20120;-65
2023/09/29 08:30:35;;;;;;;3.13;2.40;;;;;;;;;;5058483;28;20083;-65
2023/09/29 08:33:03;;;;;;;2.05;1.88;;;;;;;;;;5051822;28;20086;-65
2023/09/29 08:35:28;;;;;;;2.13;1.73;;;;;;;;;;5055389;28;20045;-65
2023/09/29 08:37:54;;;;;;;1.98;1.65;;;;;;;;;;5050335;28;20043;-65
2023/09/29 08:40:21;;;;;;;5.25;2.20;;;;;;;;;;5049821;28;20079;-65
2023/09/29 08:42:50;;;;;;;2.00;1.40;;;;;;;;;;5049847;28;20044;-65
2023/09/29 08:45:17;;;;;;;2.42;1.77;;;;;;;;;;5046213;28;20084;-66
2023/09/29 08:47:46;;;;;;;2.13;1.90;;;;;;;;;;5045644;28;20855;-65
2023/09/29 08:50:12;;;;;;;1.63;1.52;;;;;;;;;;5047504;28;20037;-65
2023/09/29 08:52:44;;;;;;;1.88;1.30;;;;;;;;;;5048132;28;20052;-65
2023/09/29 08:55:10;;;;;;;;;;;;;;;;;;5047848;28;20069;-65
2023/09/29 08:57:36;;;;;;;2.63;1.80;;;;;;;;;;5046296;28;19963;-65
2023/09/29 09:00:06;;;;;;;2.95;1.90;;;;;;;;;;5047623;28;20064;-65
2023/09/29 09:02:32;;;;;;;2.47;2.05;;;;;;;;;;5047088;28;20048;-65
2023/09/29 09:04:58;;;;;;;5.95;1.60;;;;;;;;;;5047760;28;20045;-65
2023/09/29 09:07:25;;;;;;;1.83;1.42;;;;;;;;;;5046319;28;20151;-65
2023/09/29 09:09:53;;;;;;;1.77;1.52;;;;;;;;;;5047154;28;20240;-65
2023/09/29 09:12:30;;;;;;;2.53;1.77;;;;;;;;;;5047511;28;20045;-65
2023/09/29 09:14:57;;;;;;;2.33;1.80;;;;;;;;;;5040775;28;20094;-65
2023/09/29 09:17:23;;;;;;;3.33;2.38;;;;;;;;;;5046830;28;20140;-65
2023/09/29 09:19:52;;;;;;;5.38;2.38;;;;;;;;;;5047137;28;20049;-65
2023/09/29 09:22:22;;;;;;;3.92;2.05;;;;;;;;;;5047807;28;20067;-65
2023/09/29 09:24:48;;;;;;;2.92;2.50;;;;;;;;;;5046558;28;20053;-65
2023/09/29 09:27:14;;;;;;;3.25;1.98;;;;;;;;;;5047186;28;20675;-65
2023/09/29 09:29:44;;;;;;;3.10;1.98;;;;;;;;;;5047130;28;20119;-66
2023/09/29 09:32:10;;;;;;;2.13;1.85;;;;;;;;;;5047670;28;20033;-66
2023/09/29 09:34:37;;;;;;;4.07;2.10;;;;;;;;;;5053797;28;20109;-65
2023/09/29 09:37:03;;;;;;;3.03;2.05;;;;;;;;;;5049984;28;20568;-65
2023/09/29 09:39:29;;;;;;;3.53;1.90;;;;;;;;;;5050856;28;20065;-65
2023/09/29 09:41:59;;;;;;;3.13;2.40;;;;;;;;;;5046936;28;20082;-65
2023/09/29 09:44:26;;;;;;;2.10;1.77;;;;;;;;;;5054237;28;20042;-65
2023/09/29 09:47:03;;;;;;;2.60;1.98;;;;;;;;;;5046934;28;20389;-65
2023/09/29 09:49:50;;;;;;;2.45;2.05;;;;;;;;;;5042018;28;20053;-66
2023/09/29 09:52:24;;;;;;;1.90;1.70;;;;;;;;;;5043701;28;20138;-65
2023/09/29 09:54:52;;;;;;;1.80;1.70;;;;;;;;;;5045981;28;20037;-66
2023/09/29 09:57:35;;;;;;;2.47;1.63;;;;;;;;;;5045041;28;20123;-65
2023/09/29 10:00:07;;;;;;;2.20;1.95;;;;;;;;;;5043804;28;20053;-65
2023/09/29 10:02:35;;;;;;;3.90;2.10;;;;;;;;;;5045891;28;20169;-65
2023/09/29 10:05:02;;;;;;;2.03;1.65;;;;;;;;;;5048555;28;20053;-66
2023/09/29 10:07:28;;;;;;;5.57;3.35;;;;;;;;;;5053639;28;20048;-65
2023/09/29 10:09:54;;;;;;;6.35;4.57;;;;;;;;;;5047801;28;20044;-65
2023/09/29 10:12:27;;;;;;;6.90;3.78;;;;;;;;;;5054972;28;20044;-65
2023/09/29 10:14:53;;;;;;;4.18;2.95;;;;;;;;;;5049864;28;20041;-65
2023/09/29 10:17:20;;;;;;;5.22;2.97;;;;;;;;;;5050029;28;20041;-65
2023/09/29 10:19:50;;;;;;;2.42;2.22;;;;;;;;;;5047999;28;20085;-65
2023/09/29 10:22:28;;;;;;;2.88;2.20;;;;;;;;;;5046718;28;20165;-66
2023/09/29 10:24:59;;;;;;;3.13;2.10;;;;;;;;;;5045939;28;20147;-66
2023/09/29 10:27:30;;;;;;;2.73;2.00;;;;;;;;;;5050596;28;20033;-66
2023/09/29 10:30:23;;;;;;;2.85;2.35;;;;;;;;;;5047924;28;20508;-65
2023/09/29 10:32:49;;;;;;;;;;;;;;;;;;5050857;28;20069;-63
2023/09/29 10:35:22;;;;;;;4.30;2.58;;;;;;;;;;5045638;28;19958;-63
2023/09/29 10:37:54;;;;;;;4.20;2.47;;;;;;;;;;5051316;28;20700;-63
2023/09/29 10:40:32;;;;;;;5.60;2.85;;;;;;;;;;5053426;28;20052;-62
2023/09/29 10:43:01;;;;;;;5.18;2.58;;;;;;;;;;5045862;28;20068;-62
2023/09/29 10:45:29;;;;;;;3.38;1.63;;;;;;;;;;5046665;28;20037;-62
2023/09/29 10:48:00;;;;;;;3.88;1.98;;;;;;;;;;5045063;28;20045;-62
2023/09/29 10:50:27;;;;;;;3.50;2.28;;;;;;;;;;5046017;28;20049;-62
2023/09/29 10:52:53;;;;;;;2.22;1.77;;;;;;;;;;5046439;28;20037;-62
2023/09/29 10:55:19;;;;;;;3.17;2.08;;;;;;;;;;5044934;28;20413;-62
2023/09/29 10:57:46;;;;;;;3.40;1.88;;;;;;;;;;5043437;28;20037;-62
2023/09/29 11:00:14;;;;;;;4.95;2.40;;;;;;;;;;5063322;28;20041;-62
2023/09/29 11:02:41;;;;;;;3.03;2.10;;;;;;;;;;5045440;28;20048;-63
2023/09/29 11:05:10;;;;;;;2.63;2.03;;;;;;;;;;5050006;28;20093;-63
2023/09/29 11:07:47;;;;;;;2.28;1.52;;;;;;;;;;5053346;28;20041;-63
2023/09/29 11:10:13;;;;;;;1.90;1.67;;;;;;;;;;5056737;28;20048;-63
2023/09/29 11:12:43;;;;;;;3.17;1.85;;;;;;;;;;5050547;28;20033;-62
2023/09/29 11:15:09;;;;;;;2.70;1.90;;;;;;;;;;5049023;28;20056;-62
2023/09/29 11:17:45;;;;;;;4.30;2.28;;;;;;;;;;5051421;28;20041;-63
2023/09/29 11:20:16;;;;;;;2.20;1.65;;;;;;;;;;5054258;28;20076;-65
2023/09/29 11:22:45;;;;;;;3.80;1.85;;;;;;;;;;5045681;28;20044;-62
2023/09/29 11:25:21;;;;;;;3.90;2.40;;;;;;;;;;5047734;28;20044;-62
2023/09/29 11:27:51;;;;;;;2.53;2.30;;;;;;;;;;5047841;28;20068;-62
2023/09/29 11:30:20;;;;;;;3.00;2.10;;;;;;;;;;5044376;28;20041;-62
2023/09/29 11:32:46;;;;;;;2.80;1.92;;;;;;;;;;5046585;28;20044;-62
2023/09/29 11:35:13;;;;;;;2.33;1.90;;;;;;;;;;5044835;28;20029;-62
2023/09/29 11:37:40;;;;;;;2.75;1.48;;;;;;;;;;5046402;28;20555;-62
2023/09/29 11:40:11;;;;;;;2.33;1.40;;;;;;;;;;5047271;28;20041;-62
2023/09/29 11:42:38;;;;;;;4.15;3.17;;;;;;;;;;5049033;28;20632;-61
2023/09/29 11:45:08;;;;;;;5.15;3.03;;;;;;;;;;5045381;28;20511;-62
2023/09/29 11:47:34;;;;;;;5.35;3.13;;;;;;;;;;5048441;28;20045;-62
2023/09/29 11:50:00;;;;;;;6.50;2.47;;;;;;;;;;5047424;28;20083;-61
2023/09/29 11:52:26;;;;;;;2.65;2.40;;;;;;;;;;5048187;28;20069;-61
2023/09/29 11:54:52;;;;;;;1.83;1.52;;;;;;;;;;5046450;28;20040;-61
2023/09/29 11:57:18;;;;;;;1.20;1.10;;;;;;;;;;5045632;28;20397;-61
2023/09/29 11:59:45;;;;;;;0.90;0.77;;;;;;;;;;5045716;28;20074;-61
2023/09/29 12:02:11;;;;;;;1.25;0.88;;;;;;;;;;5046607;28;20048;-62
2023/09/29 12:04:36;;;;;;;0.75;0.50;;;;;;;;;;5044723;28;20033;-61
2023/09/29 12:07:04;;;;;;;0.25;0.25;;;;;;;;;;5047331;28;20037;-61
2023/09/29 12:09:30;;;;;;;0.73;0.40;;;;;;;;;;5052966;28;20557;-61
2023/09/29 12:12:00;;;;;;;0.50;0.40;;;;;;;;;;5051267;28;20049;-61
2023/09/29 12:14:26;;;;;;;0.60;0.30;;;;;;;;;;5049924;28;20428;-61
2023/09/29 12:16:53;;;;;;;0.82;0.43;;;;;;;;;;5052127;28;20079;-62
2023/09/29 12:19:22;;;;;;;0.82;0.40;;;;;;;;;;5053338;28;20029;-62
2023/09/29 12:21:48;;;;;;;0.20;0.20;;;;;;;;;;5052792;28;20048;-61
2023/09/29 12:24:14;;;;;;;0.73;0.30;;;;;;;;;;5050377;28;20115;-61
2023/09/29 12:26:46;;;;;;;0.35;0.30;;;;;;;;;;5054012;28;20114;-61
2023/09/29 12:29:13;;;;;;;0.20;0.20;;;;;;;;;;5058672;28;20041;-61
2023/09/29 12:31:39;;;;;;;2.25;0.60;;;;;;;;;;5059138;28;20036;-61
2023/09/29 12:34:05;;;;;;;1.05;0.63;;;;;;;;;;5050412;28;20064;-61
2023/09/29 12:36:31;;;;;;;1.25;0.38;;;;;;;;;;5057934;28;20802;-61
2023/09/29 12:38:58;;;;;;;1.38;0.60;;;;;;;;;;5048579;28;20037;-61
2023/09/29 12:41:25;;;;;;;0.95;0.40;;;;;;;;;;5048968;28;20052;-61
2023/09/29 12:43:51;;;;;;;0.30;0.28;;;;;;;;;;5056497;28;20138;-61
2023/09/29 12:46:18;;;;;;;0.60;0.30;;;;;;;;;;5049306;28;20068;-61
2023/09/29 12:48:44;;;;;;;1.60;0.45;;;;;;;;;;5053827;28;20520;-61
2023/09/29 12:51:18;;;;;;;1.38;0.60;;;;;;;;;;5050766;28;20091;-61
2023/09/29 12:53:44;;;;;;;1.33;0.57;;;;;;;;;;5048289;28;20531;-61
2023/09/29 12:56:14;;;;;;;1.63;0.40;;;;;;;;;;5052530;28;20057;-61
2023/09/29 12:58:40;;;;;;;0.88;0.40;;;;;;;;;;5049666;28;20071;-61
2023/09/29 13:01:06;;;;;;;0.40;0.20;;;;;;;;;;5051502;28;20048;-61
2023/09/29 13:03:32;;;;;;;0.65;0.43;;;;;;;;;;5049269;28;20064;-61
2023/09/29 13:06:03;;;;;;;1.38;0.40;;;;;;;;;;5048118;28;20057;-61
2023/09/29 13:08:29;;;;;;;0.68;0.47;;;;;;;;;;5048130;28;20045;-61
2023/09/29 13:10:56;;;;;;;0.57;0.20;;;;;;;;;;5051014;28;20044;-61
2023/09/29 13:13:22;;;;;;;0.60;0.30;;;;;;;;;;5047762;28;20045;-61
2023/09/29 13:15:50;;;;;;;0.93;0.40;;;;;;;;;;5051584;28;20406;-61
2023/09/29 13:18:16;;;;;;;0.40;0.15;;;;;;;;;;5042921;28;20122;-61
2023/09/29 13:20:44;;;;;;;0.30;0.10;;;;;;;;;;5050104;28;20037;-61
2023/09/29 13:23:10;;;;;;;0.50;0.25;;;;;;;;;;5047231;28;20076;-61
2023/09/29 13:25:37;;;;;;;0.17;0.10;;;;;;;;;;5048847;28;20385;-61
2023/09/29 13:28:03;;;;;;;0.40;0.30;;;;;;;;;;5047233;28;20037;-61
2023/09/29 13:30:29;;;;;;;1.27;0.40;;;;;;;;;;5048546;28;20035;-61
2023/09/29 13:32:56;;;;;;;0.55;0.22;;;;;;;;;;5045510;28;20111;-61
2023/09/29 13:35:22;;;;;;;0.98;0.20;;;;;;;;;;5051330;28;20041;-61
2023/09/29 13:37:48;;;;;;;0.77;0.30;;;;;;;;;;5047004;28;20037;-61
2023/09/29 13:40:16;;;;;;;0.80;0.43;;;;;;;;;;5045815;28;20045;-61
2023/09/29 13:42:42;;;;;;;1.13;0.43;;;;;;;;;;5047325;28;20033;-61
2023/09/29 13:45:08;;;;;;;2.25;0.57;;;;;;;;;;5046220;28;20057;-62
2023/09/29 13:47:34;;;;;;;1.45;0.60;;;;;;;;;;5047025;28;20037;-62
2023/09/29 13:50:01;;;;;;;1.25;0.50;;;;;;;;;;5046145;28;20103;-62
2023/09/29 13:52:27;;;;;;;1.25;0.70;;;;;;;;;;5049558;28;20036;-62
2023/09/29 13:54:53;;;;;;;0.77;0.47;;;;;;;;;;5057442;28;20037;-62
2023/09/29 13:57:19;;;;;;;1.75;0.70;;;;;;;;;;5051850;28;20045;-62
2023/09/29 13:59:45;;;;;;;0.65;0.50;;;;;;;;;;5056013;28;20036;-64
2023/09/29 14:02:12;;;;;;;3.13;1.00;;;;;;;;;;5060291;28;20400;-64
2023/09/29 14:04:44;;;;;;;5.05;1.40;;;;;;;;;;5043680;28;20028;-64
2023/09/29 14:07:11;;;;;;;1.50;0.90;;;;;;;;;;5045151;28;20044;-64
2023/09/29 14:09:37;;;;;;;1.30;0.77;;;;;;;;;;5044601;28;20040;-64
2023/09/29 14:12:04;;;;;;;2.45;1.02;;;;;;;;;;5044112;28;20780;-64
2023/09/29 14:14:30;;;;;;;2.83;1.48;;;;;;;;;;5046129;28;20056;-64
2023/09/29 14:16:57;;;;;;;4.15;1.63;;;;;;;;;;5045174;28;20132;-64
2023/09/29 14:19:23;;;;;;;1.20;1.10;;;;;;;;;;5045296;28;20636;-64
2023/09/29 14:21:49;;;;;;;4.32;1.42;;;;;;;;;;5045411;28;20567;-64
2023/09/29 14:24:18;;;;;;;3.70;1.80;;;;;;;;;;5044476;28;20040;-64
2023/09/29 14:26:45;;;;;;;1.83;1.15;;;;;;;;;;5045499;28;20041;-64
2023/09/29 14:29:11;;;;;;;2.40;1.48;;;;;;;;;;5040973;28;20052;-64
2023/09/29 14:31:38;;;;;;;6.47;2.10;;;;;;;;;;5043109;28;20115;-64
2023/09/29 14:34:04;;;;;;;3.33;1.52;;;;;;;;;;5045156;28;20041;-64
2023/09/29 14:36:30;;;;;;;1.80;1.15;;;;;;;;;;5045045;28;20041;-63
2023/09/29 14:38:56;;;;;;;2.20;1.40;;;;;;;;;;5046191;28;20102;-64
2023/09/29 14:41:22;;;;;;;3.30;1.48;;;;;;;;;;5045085;28;20037;-64
2023/09/29 14:43:48;;;;;;;1.73;1.15;;;;;;;;;;5045852;28;20052;-64